Kvitbjoern — LM9158 — position and weather

sailwx.info

Track history (hours):
 
Tides and Currents Weather Stations Pressure Air Temp Water Temp Dewpoint Dewpoint Depression Visibility Wind Speed Wind Dir Waves Ship Positions

Kvitbjoern

Last reported at 2015-May-22 14:22 UTC. Time now 2015-May-28 16:16 UTC.
Position N 66°22' E 012°21'.

Length 10 m.

Type: Fishing. MMSI: 257454420.

Date/timePositionNaut miles runAvg speedWind from/ knotsBaromVisibWave heightAir tempDewpointWater temp
2015-May-22 14:22N 66°22' E 012°21'0 0.0
2015-May-22 13:28N 66°22' E 012°21'1 0.1
2015-May-22 02:33N 66°23' E 012°24'3 2.5
2015-May-22 01:31N 66°24' E 012°29'0 0.3
2015-May-22 00:31N 66°24' E 012°29'1 0.6
2015-May-21 23:27N 66°24' E 012°31'0 0.5
2015-May-21 22:33N 66°24' E 012°32'1 0.3
2015-May-21 20:29N 66°25' E 012°30'0 0.2
2015-May-21 19:29N 66°25' E 012°30'0 0.4
2015-May-21 18:29N 66°25' E 012°31'1 1.1
2015-May-21 17:28N 66°25' E 012°29'3 3.0
2015-May-21 16:32N 66°24' E 012°24'2 0.1
2015-May-20 19:32N 66°22' E 012°21'3 2.6
2015-May-20 18:33N 66°24' E 012°26'2 1.3
2015-May-20 17:22N 66°24' E 012°29'1 0.7
2015-May-20 16:33N 66°25' E 012°31'0 0.3
2015-May-20 15:25N 66°25' E 012°30'1 1.6
2015-May-20 14:30N 66°24' E 012°33'1 0.4
2015-May-20 12:31N 66°24' E 012°31'6 6.5
2015-May-20 11:31N 66°23' E 012°15'1 0.2
2015-May-20 03:33N 66°22' E 012°17'2 0.2
2015-May-19 18:33N 66°23' E 012°22'5 1.2
2015-May-19 14:04N 66°24' E 012°09'3 5.0
2015-May-19 13:32N 66°26' E 012°14'4 1.4
2015-May-19 10:15N 66°30' E 012°15'3 0.6
2015-May-19 05:30N 66°28' E 012°19'3 2.6
2015-May-19 04:28N 66°26' E 012°24'0 0.5
2015-May-19 03:33N 66°26' E 012°23'3 0.4
2015-May-18 18:14N 66°22' E 012°21'3 3.7
2015-May-18 17:33N 66°25' E 012°24'4 2.6
2015-May-18 16:08N 66°28' E 012°19'2 0.4
2015-May-18 11:26N 66°28' E 012°14'5 6.0
2015-May-18 10:33N 66°24' E 012°22'2 2.0
2015-May-18 09:32N 66°22' E 012°22'1 0.5
2015-May-18 08:28N 66°22' E 012°21'  
Track history (hours):
 
Tides and Currents Weather Stations Pressure Air Temp Water Temp Dewpoint Dewpoint Depression Visibility Wind Speed Wind Dir Waves Ship Positions

Kvitbjoern

Last reported at 2015-May-22 14:22 UTC. Time now 2015-May-28 16:16 UTC.
Position N 66°22' E 012°21'.

Length 10 m.

Type: Fishing. MMSI: 257454420.

Date/timePositionNaut miles runAvg speedWind from/ knotsBaromVisibWave heightAir tempDewpointWater temp
2015-May-22 14:22N 66°22' E 012°21'0 0.0
2015-May-22 13:28N 66°22' E 012°21'1 0.1
2015-May-22 02:33N 66°23' E 012°24'3 2.5
2015-May-22 01:31N 66°24' E 012°29'0 0.3
2015-May-22 00:31N 66°24' E 012°29'1 0.6
2015-May-21 23:27N 66°24' E 012°31'0 0.5
2015-May-21 22:33N 66°24' E 012°32'1 0.3
2015-May-21 20:29N 66°25' E 012°30'0 0.2
2015-May-21 19:29N 66°25' E 012°30'0 0.4
2015-May-21 18:29N 66°25' E 012°31'1 1.1
2015-May-21 17:28N 66°25' E 012°29'3 3.0
2015-May-21 16:32N 66°24' E 012°24'2 0.1
2015-May-20 19:32N 66°22' E 012°21'3 2.6
2015-May-20 18:33N 66°24' E 012°26'2 1.3
2015-May-20 17:22N 66°24' E 012°29'1 0.7
2015-May-20 16:33N 66°25' E 012°31'0 0.3
2015-May-20 15:25N 66°25' E 012°30'1 1.6
2015-May-20 14:30N 66°24' E 012°33'1 0.4
2015-May-20 12:31N 66°24' E 012°31'6 6.5
2015-May-20 11:31N 66°23' E 012°15'1 0.2
2015-May-20 03:33N 66°22' E 012°17'2 0.2
2015-May-19 18:33N 66°23' E 012°22'5 1.2
2015-May-19 14:04N 66°24' E 012°09'3 5.0
2015-May-19 13:32N 66°26' E 012°14'4 1.4
2015-May-19 10:15N 66°30' E 012°15'3 0.6
2015-May-19 05:30N 66°28' E 012°19'3 2.6
2015-May-19 04:28N 66°26' E 012°24'0 0.5
2015-May-19 03:33N 66°26' E 012°23'3 0.4
2015-May-18 18:14N 66°22' E 012°21'3 3.7
2015-May-18 17:33N 66°25' E 012°24'4 2.6
2015-May-18 16:08N 66°28' E 012°19'2 0.4
2015-May-18 11:26N 66°28' E 012°14'5 6.0
2015-May-18 10:33N 66°24' E 012°22'2 2.0
2015-May-18 09:32N 66°22' E 012°22'1 0.5
2015-May-18 08:28N 66°22' E 012°21'  

Dump ship's entire track history